createdAt,value
2022-08-30T00:01:23.635Z,24.30
2022-08-30T00:04:25.126Z,24.60
2022-08-30T00:07:26.658Z,24.30
2022-08-30T00:10:28.439Z,24.70
2022-08-30T00:13:33.533Z,25.00
2022-08-30T00:16:34.860Z,24.60
2022-08-30T00:19:37.392Z,24.50
2022-08-30T00:22:38.712Z,24.70
2022-08-30T00:25:40.552Z,24.30
2022-08-30T00:28:42.972Z,24.90
2022-08-30T00:31:44.372Z,24.40
2022-08-30T00:34:45.651Z,24.30
2022-08-30T00:37:47.462Z,24.50
2022-08-30T00:40:49.307Z,24.50
2022-08-30T00:43:51.596Z,24.60
2022-08-30T00:46:52.930Z,24.60
2022-08-30T00:49:55.800Z,24.40
2022-08-30T00:52:59.110Z,24.50
2022-08-30T00:56:00.969Z,24.60
2022-08-30T00:59:07.339Z,24.50
2022-08-30T01:02:09.462Z,24.50
2022-08-30T01:05:16.008Z,24.50
2022-08-30T01:08:17.661Z,24.50
2022-08-30T01:11:20.519Z,24.40
2022-08-30T01:14:26.057Z,24.40
2022-08-30T01:17:28.088Z,24.40
2022-08-30T01:20:35.047Z,24.40
2022-08-30T01:23:38.606Z,24.20
2022-08-30T01:26:40.276Z,24.20
2022-08-30T01:29:45.120Z,24.40
2022-08-30T01:32:46.685Z,24.50
2022-08-30T01:35:52.067Z,24.70
2022-08-30T01:38:56.025Z,24.50
2022-08-30T01:41:57.546Z,24.70
2022-08-30T01:44:59.116Z,24.50
2022-08-30T01:48:02.759Z,24.50
2022-08-30T01:51:09.508Z,24.30
2022-08-30T01:54:11.503Z,24.80
2022-08-30T01:57:14.985Z,24.30
2022-08-30T02:00:16.927Z,24.60
2022-08-30T02:03:19.275Z,24.40
2022-08-30T02:06:20.913Z,24.50
2022-08-30T02:09:23.004Z,24.20
2022-08-30T02:12:25.082Z,24.70
2022-08-30T02:15:26.512Z,24.60
2022-08-30T02:18:27.858Z,24.50
2022-08-30T02:21:29.242Z,24.40
2022-08-30T02:24:31.053Z,24.60
2022-08-30T02:27:33.085Z,24.30
2022-08-30T02:30:34.794Z,24.40
2022-08-30T02:33:37.004Z,24.40
2022-08-30T02:36:41.811Z,24.60
2022-08-30T02:39:43.740Z,24.20
2022-08-30T02:42:48.588Z,24.40
2022-08-30T02:45:50.146Z,24.30
2022-08-30T02:48:51.590Z,24.60
2022-08-30T02:51:52.858Z,24.30
2022-08-30T02:54:54.728Z,24.60
2022-08-30T02:57:56.238Z,24.30
2022-08-30T03:01:00.766Z,24.60
2022-08-30T03:04:02.266Z,24.40
2022-08-30T03:07:03.734Z,24.60
2022-08-30T03:10:06.417Z,24.30
2022-08-30T03:13:11.586Z,24.30
2022-08-30T03:16:16.145Z,24.20
2022-08-30T03:19:17.527Z,24.50
2022-08-30T03:22:18.935Z,24.50
2022-08-30T03:25:20.884Z,24.30
2022-08-30T03:28:22.335Z,24.30
2022-08-30T03:31:23.766Z,24.50
2022-08-30T03:34:25.594Z,24.30
2022-08-30T03:37:27.575Z,24.50
2022-08-30T03:40:29.609Z,24.50
2022-08-30T03:43:32.684Z,24.60
2022-08-30T03:46:37.233Z,24.30
2022-08-30T03:49:38.864Z,24.40
2022-08-30T03:52:40.163Z,24.20
2022-08-30T03:55:42.092Z,24.50
2022-08-30T03:58:43.857Z,24.20
2022-08-30T04:01:47.073Z,24.50
2022-08-30T04:04:49.092Z,24.30
2022-08-30T04:07:51.210Z,24.50
2022-08-30T04:10:53.260Z,24.40
2022-08-30T04:13:57.690Z,24.20
2022-08-30T04:17:02.146Z,24.60
2022-08-30T04:20:03.599Z,24.60
2022-08-30T04:23:06.339Z,24.10
2022-08-30T04:26:08.469Z,24.50
2022-08-30T04:29:11.508Z,24.50
2022-08-30T04:32:12.968Z,24.60
2022-08-30T04:35:14.677Z,24.20
2022-08-30T04:38:16.508Z,24.60
2022-08-30T04:41:18.883Z,24.30
2022-08-30T04:44:25.183Z,24.20
2022-08-30T04:47:26.807Z,24.30
2022-08-30T04:50:28.108Z,24.40
2022-08-30T04:53:29.457Z,24.20
2022-08-30T04:56:32.645Z,24.40
2022-08-30T04:59:34.020Z,24.20
2022-08-30T05:02:35.458Z,24.30
2022-08-30T05:05:40.166Z,24.10
2022-08-30T05:08:41.786Z,24.30
2022-08-30T05:11:48.544Z,24.40
2022-08-30T05:14:49.945Z,24.30
2022-08-30T05:17:51.393Z,24.00
2022-08-30T05:21:02.540Z,24.50
2022-08-30T05:24:03.993Z,24.30
2022-08-30T05:27:05.913Z,24.20
2022-08-30T05:30:07.773Z,24.10
2022-08-30T05:33:12.142Z,24.10
2022-08-30T05:36:14.102Z,24.20
2022-08-30T05:39:15.399Z,24.30
2022-08-30T05:42:22.871Z,24.20
2022-08-30T05:45:24.301Z,24.20
2022-08-30T05:48:25.791Z,24.00
2022-08-30T05:51:28.130Z,24.40
2022-08-30T05:54:29.410Z,24.30
2022-08-30T05:57:33.222Z,24.30
2022-08-30T06:00:37.263Z,24.00
2022-08-30T06:03:38.642Z,24.30
2022-08-30T06:06:41.034Z,24.20
2022-08-30T06:09:42.428Z,24.50
2022-08-30T06:12:44.301Z,24.20
2022-08-30T06:15:46.284Z,24.10
2022-08-30T06:18:47.977Z,23.80
2022-08-30T06:21:49.626Z,24.10
2022-08-30T06:24:57.590Z,24.00
2022-08-30T06:28:00.177Z,23.80
2022-08-30T06:31:01.662Z,23.80
2022-08-30T06:34:03.256Z,24.00
2022-08-30T06:37:04.700Z,23.90
2022-08-30T06:40:06.569Z,23.70
2022-08-30T06:43:08.879Z,23.80
2022-08-30T06:46:10.914Z,23.90
2022-08-30T06:49:16.465Z,23.80
2022-08-30T06:52:17.764Z,23.70
2022-08-30T06:55:20.764Z,23.80
2022-08-30T06:58:22.843Z,23.90
2022-08-30T07:01:25.048Z,23.90
2022-08-30T07:04:26.503Z,23.80
2022-08-30T07:07:28.114Z,23.90
2022-08-30T07:10:30.862Z,23.80
2022-08-30T07:13:33.182Z,23.90
2022-08-30T07:16:34.711Z,23.80
2022-08-30T07:19:36.012Z,23.90
2022-08-30T07:22:37.343Z,24.10
2022-08-30T07:25:39.701Z,24.00
2022-08-30T07:28:43.366Z,23.70
2022-08-30T07:31:45.734Z,24.00
2022-08-30T07:34:47.362Z,24.00
2022-08-30T07:37:53.140Z,24.00
2022-08-30T07:40:54.600Z,24.10
2022-08-30T07:43:57.009Z,24.00
2022-08-30T07:46:58.339Z,24.10
2022-08-30T07:49:59.929Z,24.00
2022-08-30T07:53:01.556Z,23.80
2022-08-30T07:56:04.849Z,24.10
2022-08-30T07:59:06.808Z,24.10
2022-08-30T08:02:08.293Z,24.10
2022-08-30T08:05:12.809Z,24.20
2022-08-30T08:08:18.520Z,24.20
2022-08-30T08:11:21.406Z,24.20
2022-08-30T08:14:23.363Z,24.30
2022-08-30T08:17:24.716Z,23.80
2022-08-30T08:20:27.046Z,24.20
2022-08-30T08:23:28.460Z,24.30
2022-08-30T08:26:29.854Z,24.10
2022-08-30T08:29:32.067Z,24.30
2022-08-30T08:32:33.639Z,24.30
2022-08-30T08:35:35.315Z,24.20
2022-08-30T08:38:36.624Z,24.50
2022-08-30T08:41:44.503Z,24.40
2022-08-30T08:44:50.155Z,24.40
2022-08-30T08:47:58.389Z,24.50
2022-08-30T08:51:15.122Z,24.40
2022-08-30T08:54:20.973Z,24.50
2022-08-30T08:57:24.743Z,24.40
2022-08-30T09:00:28.692Z,24.40
2022-08-30T09:03:30.057Z,24.50
2022-08-30T09:06:45.498Z,24.50
2022-08-30T09:09:47.143Z,24.60
2022-08-30T09:12:51.594Z,24.50
2022-08-30T09:15:55.506Z,24.50
2022-08-30T09:18:56.870Z,24.50
2022-08-30T09:21:59.030Z,24.60
2022-08-30T09:25:05.091Z,24.70
2022-08-30T09:28:09.744Z,24.90
2022-08-30T09:31:19.125Z,24.80
2022-08-30T09:34:21.537Z,24.90
2022-08-30T09:37:25.378Z,24.70
2022-08-30T09:40:28.789Z,24.80
2022-08-30T09:43:31.539Z,24.90
2022-08-30T09:46:33.694Z,24.80
2022-08-30T09:49:36.947Z,24.90
2022-08-30T09:52:42.286Z,25.10
2022-08-30T09:55:51.862Z,25.00
2022-08-30T09:58:59.266Z,25.00
2022-08-30T10:02:03.511Z,24.90
2022-08-30T10:05:09.576Z,25.20
2022-08-30T10:08:17.706Z,24.80
2022-08-30T10:11:22.468Z,25.00
2022-08-30T10:14:34.039Z,25.10
2022-08-30T10:17:42.683Z,25.10
2022-08-30T10:20:49.663Z,25.10
2022-08-30T10:23:53.363Z,25.10
2022-08-30T10:26:57.753Z,25.10
2022-08-30T10:30:01.813Z,25.10
2022-08-30T10:33:05.642Z,25.30
2022-08-30T10:36:10.485Z,25.10
2022-08-30T10:39:18.842Z,25.10
2022-08-30T10:42:22.277Z,25.40
2022-08-30T10:45:24.611Z,25.20
2022-08-30T10:48:30.226Z,25.20
2022-08-30T10:51:41.502Z,25.30
2022-08-30T10:54:46.280Z,25.00
2022-08-30T10:57:51.250Z,25.20
2022-08-30T11:00:59.661Z,25.20
2022-08-30T11:04:16.640Z,25.10
2022-08-30T11:07:25.895Z,25.30
2022-08-30T11:10:35.399Z,25.10
2022-08-30T11:13:38.141Z,25.30
2022-08-30T11:16:40.749Z,25.20
2022-08-30T11:19:44.812Z,25.40
2022-08-30T11:22:55.637Z,25.10
2022-08-30T11:25:59.818Z,25.30
2022-08-30T11:29:04.928Z,25.30
2022-08-30T11:32:22.766Z,25.10
2022-08-30T11:35:47.320Z,25.30
2022-08-30T11:38:57.685Z,25.40
2022-08-30T11:42:10.019Z,25.30
2022-08-30T11:45:28.357Z,25.40
2022-08-30T11:48:53.611Z,25.30
2022-08-30T11:52:33.358Z,25.50
2022-08-30T11:55:27.733Z,25.50
2022-08-30T11:58:36.159Z,25.60
2022-08-30T12:01:49.643Z,25.40
2022-08-30T12:04:55.400Z,25.60
2022-08-30T12:07:58.122Z,25.50
2022-08-30T12:11:01.210Z,25.30
2022-08-30T12:14:08.205Z,25.60
2022-08-30T12:17:25.227Z,25.50
2022-08-30T12:20:28.911Z,25.50
2022-08-30T12:23:35.034Z,25.20
2022-08-30T12:26:37.712Z,25.30
2022-08-30T12:29:49.465Z,25.50
2022-08-30T12:32:52.224Z,25.60
2022-08-30T12:35:53.864Z,25.50
2022-08-30T12:39:05.644Z,25.70
2022-08-30T12:42:14.672Z,25.60
2022-08-30T12:45:24.692Z,25.60
2022-08-30T12:48:26.779Z,25.70
2022-08-30T12:51:37.448Z,25.70
2022-08-30T12:54:39.487Z,25.60
2022-08-30T12:57:53.807Z,25.60
2022-08-30T13:01:16.735Z,25.60
2022-08-30T13:04:21.387Z,25.50
2022-08-30T13:07:24.257Z,25.60
2022-08-30T13:10:25.756Z,25.70
2022-08-30T13:13:30.736Z,25.40
2022-08-30T13:16:35.789Z,25.60
2022-08-30T13:19:40.581Z,25.50
2022-08-30T13:23:00.050Z,25.70
2022-08-30T13:26:01.863Z,25.60
2022-08-30T13:29:05.103Z,25.50
2022-08-30T13:32:13.073Z,25.60
2022-08-30T13:35:15.244Z,25.50
2022-08-30T13:38:16.829Z,25.60
2022-08-30T13:41:19.483Z,25.60
2022-08-30T13:44:21.414Z,25.50
2022-08-30T13:47:38.623Z,25.50
2022-08-30T13:50:42.208Z,25.70
2022-08-30T13:53:58.741Z,25.50
2022-08-30T13:57:00.414Z,25.50
2022-08-30T14:00:04.780Z,25.60
2022-08-30T14:03:13.891Z,25.50
2022-08-30T14:06:32.859Z,25.50
2022-08-30T14:09:36.180Z,25.50
2022-08-30T14:12:53.216Z,25.50
2022-08-30T14:19:17.394Z,25.60
2022-08-30T14:22:19.901Z,25.60
2022-08-30T14:25:22.778Z,25.80
2022-08-30T14:28:25.559Z,25.70
2022-08-30T14:31:29.410Z,25.60
2022-08-30T14:34:30.789Z,25.60
2022-08-30T14:37:34.887Z,25.50
2022-08-30T14:40:36.610Z,25.40
2022-08-30T14:43:39.490Z,25.60
2022-08-30T14:46:41.315Z,25.60
2022-08-30T14:49:42.877Z,25.50
2022-08-30T14:52:45.946Z,25.40
2022-08-30T14:55:47.395Z,25.60
2022-08-30T14:58:49.269Z,25.50
2022-08-30T15:01:51.076Z,25.50
2022-08-30T15:04:52.415Z,25.70
2022-08-30T15:07:55.847Z,25.60
2022-08-30T15:10:58.270Z,25.60
2022-08-30T15:13:59.683Z,25.50
2022-08-30T15:17:03.425Z,25.30
2022-08-30T15:20:09.832Z,25.70
2022-08-30T15:23:12.423Z,25.60
2022-08-30T15:26:18.424Z,25.50
2022-08-30T15:29:20.282Z,25.70
2022-08-30T15:32:22.030Z,25.70
2022-08-30T15:35:23.483Z,25.60
2022-08-30T15:38:25.808Z,25.60
2022-08-30T15:41:27.911Z,25.60
2022-08-30T15:44:30.291Z,25.60
2022-08-30T15:47:31.603Z,25.80
2022-08-30T15:50:36.122Z,25.70
2022-08-30T15:53:38.000Z,25.80
2022-08-30T15:56:39.766Z,25.60
2022-08-30T15:59:41.135Z,25.80
2022-08-30T16:02:43.107Z,25.70
2022-08-30T16:05:45.253Z,25.70
2022-08-30T16:08:47.718Z,25.70
2022-08-30T16:11:49.630Z,25.60
2022-08-30T16:14:51.318Z,25.50
2022-08-30T16:17:52.723Z,25.50
2022-08-30T16:21:04.337Z,25.60
2022-08-30T16:24:07.623Z,25.60
2022-08-30T16:27:12.158Z,25.50
2022-08-30T16:30:15.177Z,25.70
2022-08-30T16:33:16.667Z,25.90
2022-08-30T16:36:18.296Z,25.60
2022-08-30T16:39:23.435Z,25.60
2022-08-30T16:42:24.736Z,25.50
2022-08-30T16:45:28.627Z,25.70
2022-08-30T16:48:34.255Z,25.70
2022-08-30T16:51:38.207Z,25.70
2022-08-30T16:54:40.037Z,25.80
2022-08-30T16:57:42.014Z,25.70
2022-08-30T17:00:47.523Z,25.70
2022-08-30T17:03:49.813Z,25.70
2022-08-30T17:06:52.073Z,25.70
2022-08-30T17:09:54.273Z,25.70
2022-08-30T17:12:55.682Z,25.50
2022-08-30T17:15:57.508Z,25.70
2022-08-30T17:19:00.798Z,25.70
2022-08-30T17:22:02.561Z,25.70
2022-08-30T17:25:04.811Z,25.70
2022-08-30T17:28:07.212Z,25.80
2022-08-30T17:31:09.380Z,25.60
2022-08-30T17:34:12.450Z,25.70
2022-08-30T17:37:14.890Z,25.70
2022-08-30T17:40:20.166Z,26.10
2022-08-30T17:43:21.466Z,25.70
2022-08-30T17:46:22.958Z,25.70
2022-08-30T17:49:27.249Z,25.80
2022-08-30T17:52:31.687Z,25.80
2022-08-30T17:55:33.507Z,25.80
2022-08-30T17:58:34.807Z,25.80
2022-08-30T18:01:36.580Z,25.60
2022-08-30T18:04:37.997Z,25.60
2022-08-30T18:07:39.813Z,25.80
2022-08-30T18:10:41.926Z,25.70
2022-08-30T18:13:44.249Z,25.50
2022-08-30T18:16:50.052Z,25.80
2022-08-30T18:20:07.994Z,25.80
2022-08-30T18:23:13.125Z,25.70
2022-08-30T18:26:14.965Z,25.70
2022-08-30T18:29:26.222Z,25.40
2022-08-30T18:32:35.306Z,25.60
2022-08-30T18:35:38.858Z,25.40
2022-08-30T18:38:44.571Z,25.50
2022-08-30T18:41:50.211Z,25.50
2022-08-30T18:44:52.658Z,25.50
2022-08-30T18:47:54.622Z,25.70
2022-08-30T18:50:56.123Z,25.60
2022-08-30T18:53:57.635Z,25.60
2022-08-30T18:56:59.762Z,25.40
2022-08-30T19:00:02.791Z,25.60
2022-08-30T19:03:04.205Z,25.50
2022-08-30T19:06:07.012Z,25.50
2022-08-30T19:09:09.136Z,25.50
2022-08-30T19:12:11.831Z,25.70
2022-08-30T19:15:13.520Z,25.30
2022-08-30T19:18:17.289Z,25.40
2022-08-30T19:21:20.252Z,25.30
2022-08-30T19:24:22.329Z,25.50
2022-08-30T19:27:37.685Z,25.30
2022-08-30T19:30:41.318Z,25.40
2022-08-30T19:33:44.928Z,25.40
2022-08-30T19:36:46.348Z,25.30
2022-08-30T19:39:48.478Z,25.30
2022-08-30T19:42:50.938Z,25.30
2022-08-30T19:45:54.139Z,25.40
2022-08-30T19:48:55.568Z,25.40
2022-08-30T19:51:56.937Z,25.10
2022-08-30T19:55:01.385Z,25.40
2022-08-30T19:58:03.896Z,25.30
2022-08-30T20:01:12.755Z,25.00
2022-08-30T20:04:27.165Z,25.30
2022-08-30T20:07:30.327Z,25.40
2022-08-30T20:10:33.045Z,25.30
2022-08-30T20:13:38.315Z,25.10
2022-08-30T20:16:39.899Z,25.10
2022-08-30T20:19:41.505Z,25.20
2022-08-30T20:22:43.080Z,25.30
2022-08-30T20:25:53.778Z,25.20
2022-08-30T20:28:55.674Z,24.80
2022-08-30T20:31:57.101Z,25.20
2022-08-30T20:34:58.485Z,25.00
2022-08-30T20:38:05.453Z,25.20
2022-08-30T20:41:09.387Z,25.10
2022-08-30T20:44:11.915Z,25.20
2022-08-30T20:47:16.628Z,25.10
2022-08-30T20:50:18.713Z,25.30
2022-08-30T20:53:20.011Z,24.90
2022-08-30T20:56:22.313Z,25.10
2022-08-30T20:59:24.868Z,25.10
2022-08-30T21:02:26.326Z,25.20
2022-08-30T21:05:28.255Z,24.70
2022-08-30T21:08:29.829Z,25.10
2022-08-30T21:11:31.250Z,24.90
2022-08-30T21:14:33.239Z,25.10
2022-08-30T21:17:34.800Z,25.00
2022-08-30T21:20:36.299Z,24.90
2022-08-30T21:23:37.711Z,25.10
2022-08-30T21:26:39.912Z,24.80
2022-08-30T21:29:41.848Z,24.90
2022-08-30T21:32:43.088Z,25.00
2022-08-30T21:35:55.707Z,24.70
2022-08-30T21:38:57.564Z,24.90
2022-08-30T21:42:02.267Z,24.80
2022-08-30T21:45:06.486Z,24.70
2022-08-30T21:48:07.909Z,24.90
2022-08-30T21:51:09.871Z,24.70
2022-08-30T21:54:12.345Z,24.60
2022-08-30T21:57:16.156Z,24.90
2022-08-30T22:00:20.115Z,24.60
2022-08-30T22:03:21.553Z,24.50
2022-08-30T22:06:25.132Z,25.10
2022-08-30T22:09:32.433Z,24.80
2022-08-30T22:12:34.103Z,24.80
2022-08-30T22:15:39.413Z,24.80
2022-08-30T22:18:41.552Z,24.50
2022-08-30T22:21:43.933Z,24.70
2022-08-30T22:24:45.570Z,24.60
2022-08-30T22:27:46.964Z,24.70
2022-08-30T22:30:49.919Z,24.70
2022-08-30T22:33:51.962Z,24.60
2022-08-30T22:36:53.272Z,24.70
2022-08-30T22:39:54.491Z,24.70
2022-08-30T22:42:55.810Z,24.60
2022-08-30T22:46:00.956Z,24.80
2022-08-30T22:49:03.362Z,24.70
2022-08-30T22:52:04.697Z,24.70
2022-08-30T22:55:07.240Z,24.70
2022-08-30T22:58:08.829Z,24.70
2022-08-30T23:01:17.462Z,24.60
2022-08-30T23:04:18.758Z,24.80
2022-08-30T23:07:20.028Z,24.60
2022-08-30T23:10:27.098Z,24.50
2022-08-30T23:13:28.407Z,24.60
2022-08-30T23:16:33.975Z,24.50
2022-08-30T23:19:35.436Z,24.40
2022-08-30T23:22:36.716Z,24.70
2022-08-30T23:25:53.507Z,24.30
2022-08-30T23:29:05.846Z,24.40
2022-08-30T23:32:22.476Z,24.50
2022-08-30T23:35:35.708Z,24.40
2022-08-30T23:38:51.755Z,24.30
2022-08-30T23:42:05.721Z,24.70
2022-08-30T23:45:22.155Z,24.20
2022-08-30T23:48:35.717Z,25.10
2022-08-30T23:51:52.137Z,22.90
2022-08-30T23:55:05.738Z,24.80
2022-08-30T23:58:22.033Z,24.40
